createdAt,value
2022-09-06T00:00:22.690Z,994.53
2022-09-06T00:01:22.683Z,994.53
2022-09-06T00:02:22.685Z,994.49
2022-09-06T00:03:22.658Z,994.52
2022-09-06T00:04:22.701Z,994.50
2022-09-06T00:05:22.623Z,994.51
2022-09-06T00:06:22.609Z,994.50
2022-09-06T00:07:22.609Z,994.49
2022-09-06T00:08:22.585Z,994.49
2022-09-06T00:09:22.571Z,994.50
2022-09-06T00:10:22.560Z,994.47
2022-09-06T00:11:22.545Z,994.47
2022-09-06T00:12:22.533Z,994.44
2022-09-06T00:13:22.521Z,994.41
2022-09-06T00:14:22.510Z,994.41
2022-09-06T00:15:22.495Z,994.44
2022-09-06T00:16:22.511Z,994.37
2022-09-06T00:17:22.466Z,994.38
2022-09-06T00:18:22.598Z,994.38
2022-09-06T00:19:22.440Z,994.35
2022-09-06T00:20:22.426Z,994.42
2022-09-06T00:21:22.414Z,994.35
2022-09-06T00:22:22.399Z,994.41
2022-09-06T00:23:22.387Z,994.34
2022-09-06T00:24:22.371Z,994.35
2022-09-06T00:25:22.359Z,994.37
2022-09-06T00:26:22.345Z,994.34
2022-09-06T00:27:22.332Z,994.36
2022-09-06T00:28:30.891Z,994.35
2022-09-06T00:30:26.300Z,994.30
2022-09-06T00:31:26.357Z,994.34
2022-09-06T00:33:30.716Z,994.30
2022-09-06T00:34:30.694Z,994.31
2022-09-06T00:36:35.149Z,994.31
2022-09-06T00:37:35.118Z,994.35
2022-09-06T00:39:28.582Z,994.31
2022-09-06T00:40:28.475Z,994.29
2022-09-06T00:42:32.917Z,994.25
2022-09-06T00:43:32.898Z,994.26
2022-09-06T00:45:37.349Z,994.26
2022-09-06T00:46:37.350Z,994.25
2022-09-06T00:48:41.319Z,994.25
2022-09-06T00:49:41.298Z,994.23
2022-09-06T00:51:45.749Z,994.24
2022-09-06T00:52:45.721Z,994.24
2022-09-06T00:54:49.706Z,994.23
2022-09-06T00:55:49.682Z,994.20
2022-09-06T00:57:54.119Z,994.19
2022-09-06T00:58:54.102Z,994.17
2022-09-06T01:00:58.562Z,994.20
2022-09-06T01:01:58.668Z,994.16
2022-09-06T01:03:51.664Z,994.16
2022-09-06T01:04:51.635Z,994.18
2022-09-06T01:06:56.074Z,994.22
2022-09-06T01:07:56.048Z,994.23
2022-09-06T01:09:49.432Z,994.27
2022-09-06T01:10:49.404Z,994.28
2022-09-06T01:12:53.861Z,994.28
2022-09-06T01:13:53.831Z,994.35
2022-09-06T01:15:58.332Z,994.35
2022-09-06T01:16:58.252Z,994.33
2022-09-06T01:19:02.706Z,994.30
2022-09-06T01:20:02.676Z,994.29
2022-09-06T01:22:07.121Z,994.32
2022-09-06T01:23:07.104Z,994.28
2022-09-06T01:25:11.550Z,994.36
2022-09-06T01:26:11.533Z,994.36
2022-09-06T01:28:15.975Z,994.45
2022-09-06T01:29:15.950Z,994.46
2022-09-06T01:31:20.426Z,994.48
2022-09-06T01:32:20.382Z,994.52
2022-09-06T01:34:24.839Z,994.58
2022-09-06T01:35:24.809Z,994.52
2022-09-06T01:37:28.776Z,994.60
2022-09-06T01:38:28.758Z,994.57
2022-09-06T01:40:32.734Z,994.58
2022-09-06T01:41:32.698Z,994.60
2022-09-06T01:43:37.153Z,994.58
2022-09-06T01:44:37.121Z,994.59
2022-09-06T01:46:42.577Z,994.58
2022-09-06T01:47:42.557Z,994.60
2022-09-06T01:49:35.926Z,994.50
2022-09-06T01:50:35.900Z,994.47
2022-09-06T01:52:40.332Z,994.44
2022-09-06T01:53:40.313Z,994.40
2022-09-06T01:55:44.302Z,994.41
2022-09-06T01:56:44.275Z,994.42
2022-09-06T01:58:48.728Z,994.45
2022-09-06T01:59:48.695Z,994.43
2022-09-06T02:01:53.217Z,994.58
2022-09-06T02:02:53.178Z,994.70
2022-09-06T02:04:57.111Z,995.79
2022-09-06T02:05:57.079Z,995.56
2022-09-06T02:08:01.093Z,995.73
2022-09-06T02:09:01.071Z,995.74
2022-09-06T02:11:05.528Z,995.82
2022-09-06T02:12:05.492Z,995.76
2022-09-06T02:14:09.947Z,995.77
2022-09-06T02:15:09.920Z,995.66
2022-09-06T02:17:15.376Z,995.66
2022-09-06T02:18:15.356Z,995.62
2022-09-06T02:20:08.742Z,995.77
2022-09-06T02:21:08.711Z,995.76
2022-09-06T02:23:13.155Z,995.74
2022-09-06T02:24:13.135Z,995.72
2022-09-06T02:26:17.103Z,995.71
2022-09-06T02:27:17.075Z,995.73
2022-09-06T02:29:22.540Z,995.72
2022-09-06T02:30:22.519Z,995.66
2022-09-06T02:32:26.956Z,995.66
2022-09-06T02:33:26.937Z,995.68
2022-09-06T02:35:31.393Z,995.67
2022-09-06T02:36:31.360Z,995.69
2022-09-06T02:38:35.345Z,995.60
2022-09-06T02:39:35.352Z,995.62
2022-09-06T02:41:39.781Z,995.57
2022-09-06T02:42:39.749Z,995.57
2022-09-06T02:44:44.205Z,995.51
2022-09-06T02:45:44.260Z,995.44
2022-09-06T02:47:48.142Z,995.35
2022-09-06T02:48:48.129Z,995.30
2022-09-06T02:50:52.114Z,995.30
2022-09-06T02:51:52.083Z,995.27
2022-09-06T02:53:56.080Z,995.32
2022-09-06T02:54:56.065Z,995.37
2022-09-06T02:57:01.529Z,995.35
2022-09-06T02:58:01.497Z,995.32
2022-09-06T02:59:54.881Z,995.29
2022-09-06T03:00:54.891Z,995.23
2022-09-06T03:02:59.298Z,995.24
2022-09-06T03:03:59.275Z,995.27
2022-09-06T03:06:03.254Z,995.24
2022-09-06T03:07:03.225Z,995.22
2022-09-06T03:08:03.213Z,995.28
2022-09-06T03:09:03.200Z,995.26
2022-09-06T03:10:03.199Z,995.28
2022-09-06T03:11:03.173Z,995.23
2022-09-06T03:12:03.171Z,995.21
2022-09-06T03:13:03.149Z,995.22
2022-09-06T03:14:03.138Z,995.21
2022-09-06T03:15:03.124Z,995.19
2022-09-06T03:16:03.110Z,995.17
2022-09-06T03:17:03.146Z,995.21
2022-09-06T03:18:03.103Z,995.24
2022-09-06T03:19:03.072Z,995.27
2022-09-06T03:20:03.061Z,995.21
2022-09-06T03:21:03.056Z,995.25
2022-09-06T03:22:03.035Z,995.23
2022-09-06T03:23:03.022Z,995.26
2022-09-06T03:24:03.012Z,995.30
2022-09-06T03:25:03.004Z,995.30
2022-09-06T03:26:02.984Z,995.35
2022-09-06T03:27:02.970Z,995.40
2022-09-06T03:28:02.958Z,995.34
2022-09-06T03:29:02.947Z,995.40
2022-09-06T03:30:02.950Z,995.40
2022-09-06T03:31:02.998Z,995.38
2022-09-06T03:32:02.908Z,995.38
2022-09-06T03:33:03.158Z,995.37
2022-09-06T03:34:02.887Z,995.42
2022-09-06T03:35:02.871Z,995.39
2022-09-06T03:36:02.856Z,995.37
2022-09-06T03:37:02.845Z,995.34
2022-09-06T03:38:02.971Z,995.37
2022-09-06T03:39:02.818Z,995.32
2022-09-06T03:40:02.916Z,995.30
2022-09-06T03:41:02.794Z,995.29
2022-09-06T03:42:02.781Z,995.27
2022-09-06T03:43:02.768Z,995.30
2022-09-06T03:44:02.754Z,995.31
2022-09-06T03:45:02.742Z,995.28
2022-09-06T03:46:02.854Z,995.33
2022-09-06T03:47:02.718Z,995.37
2022-09-06T03:48:02.705Z,995.38
2022-09-06T03:49:02.691Z,995.37
2022-09-06T03:50:02.693Z,995.29
2022-09-06T03:51:02.662Z,995.24
2022-09-06T03:52:02.653Z,995.17
2022-09-06T03:53:02.640Z,995.16
2022-09-06T03:54:02.631Z,995.12
2022-09-06T03:55:02.616Z,995.07
2022-09-06T03:56:02.599Z,994.98
2022-09-06T03:57:02.585Z,994.89
2022-09-06T03:58:02.574Z,994.84
2022-09-06T03:59:02.559Z,994.82
2022-09-06T04:00:02.547Z,994.81
2022-09-06T04:01:02.573Z,994.84
2022-09-06T04:02:02.579Z,994.85
2022-09-06T04:03:02.510Z,994.77
2022-09-06T04:04:02.498Z,994.68
2022-09-06T04:05:02.487Z,994.63
2022-09-06T04:06:02.470Z,994.52
2022-09-06T04:07:02.451Z,994.48
2022-09-06T04:08:02.453Z,994.45
2022-09-06T04:09:02.434Z,994.50
2022-09-06T04:10:02.433Z,994.59
2022-09-06T04:11:02.407Z,994.66
2022-09-06T04:12:02.387Z,994.63
2022-09-06T04:13:02.373Z,994.63
2022-09-06T04:14:02.362Z,994.56
2022-09-06T04:15:02.348Z,994.52
2022-09-06T04:16:02.333Z,994.45
2022-09-06T04:17:02.394Z,994.50
2022-09-06T04:18:06.007Z,994.44
2022-09-06T04:19:02.293Z,994.45
2022-09-06T04:20:02.279Z,994.40
2022-09-06T04:21:02.276Z,994.32
2022-09-06T04:22:02.255Z,994.25
2022-09-06T04:23:02.238Z,994.16
2022-09-06T04:24:02.227Z,994.14
2022-09-06T04:25:02.215Z,994.12
2022-09-06T04:26:02.200Z,994.12
2022-09-06T04:27:02.183Z,994.09
2022-09-06T04:28:02.172Z,994.15
2022-09-06T04:29:02.158Z,994.20
2022-09-06T04:30:02.152Z,994.20
2022-09-06T04:31:04.703Z,994.25
2022-09-06T04:32:02.182Z,994.27
2022-09-06T04:33:02.105Z,994.27
2022-09-06T04:34:02.096Z,994.34
2022-09-06T04:35:02.077Z,994.44
2022-09-06T04:36:02.067Z,994.49
2022-09-06T04:37:02.050Z,994.50
2022-09-06T04:38:02.044Z,994.50
2022-09-06T04:39:02.022Z,994.45
2022-09-06T04:40:02.110Z,994.41
2022-09-06T04:41:01.999Z,994.43
2022-09-06T04:42:01.985Z,994.42
2022-09-06T04:43:01.971Z,994.46
2022-09-06T04:44:01.959Z,994.49
2022-09-06T04:45:01.943Z,994.52
2022-09-06T04:46:02.083Z,994.55
2022-09-06T04:47:04.322Z,994.55
2022-09-06T04:48:01.901Z,994.49
2022-09-06T04:49:01.891Z,994.45
2022-09-06T04:50:01.880Z,994.44
2022-09-06T04:51:01.862Z,994.38
2022-09-06T04:52:01.848Z,994.37
2022-09-06T04:53:01.845Z,994.36
2022-09-06T04:54:01.898Z,994.31
2022-09-06T04:55:01.809Z,994.27
2022-09-06T04:56:01.795Z,994.22
2022-09-06T04:57:01.782Z,994.24
2022-09-06T04:58:01.779Z,994.27
2022-09-06T04:59:01.756Z,994.30
2022-09-06T05:00:01.742Z,994.24
2022-09-06T05:01:01.784Z,994.23
2022-09-06T05:02:01.754Z,994.26
2022-09-06T05:03:01.703Z,994.26
2022-09-06T05:04:01.687Z,994.34
2022-09-06T05:05:01.675Z,994.41
2022-09-06T05:06:01.662Z,994.43
2022-09-06T05:07:01.648Z,994.48
2022-09-06T05:08:01.638Z,994.51
2022-09-06T05:09:01.626Z,994.50
2022-09-06T05:10:01.613Z,994.49
2022-09-06T05:11:01.596Z,994.47
2022-09-06T05:12:01.581Z,994.40
2022-09-06T05:13:01.577Z,994.35
2022-09-06T05:14:01.559Z,994.31
2022-09-06T05:15:01.554Z,994.35
2022-09-06T05:16:01.595Z,994.42
2022-09-06T05:17:01.519Z,994.48
2022-09-06T05:18:01.508Z,994.54
2022-09-06T05:19:01.489Z,994.57
2022-09-06T05:20:01.475Z,994.53
2022-09-06T05:21:01.467Z,994.54
2022-09-06T05:22:01.448Z,994.51
2022-09-06T05:23:01.436Z,994.47
2022-09-06T05:24:01.427Z,994.49
2022-09-06T05:25:01.408Z,994.50
2022-09-06T05:26:01.401Z,994.51
2022-09-06T05:27:01.384Z,994.58
2022-09-06T05:28:01.371Z,994.58
2022-09-06T05:29:01.363Z,994.58
2022-09-06T05:30:01.343Z,994.58
2022-09-06T05:31:01.332Z,994.54
2022-09-06T05:32:01.364Z,994.55
2022-09-06T05:33:01.307Z,994.55
2022-09-06T05:34:01.293Z,994.60
2022-09-06T05:35:01.283Z,994.55
2022-09-06T05:36:01.276Z,994.57
2022-09-06T05:37:01.256Z,994.54
2022-09-06T05:38:01.242Z,994.57
2022-09-06T05:39:01.231Z,994.62
2022-09-06T05:40:01.404Z,994.61
2022-09-06T05:41:01.200Z,994.65
2022-09-06T05:42:01.184Z,994.63
2022-09-06T05:43:01.170Z,994.66
2022-09-06T05:44:01.192Z,994.67
2022-09-06T05:45:01.189Z,994.68
2022-09-06T05:46:01.181Z,994.71
2022-09-06T05:47:01.146Z,994.69
2022-09-06T05:48:01.104Z,994.73
2022-09-06T05:49:01.147Z,994.76
2022-09-06T05:50:01.079Z,994.76
2022-09-06T05:51:01.066Z,994.79
2022-09-06T05:52:01.050Z,994.78
2022-09-06T05:53:01.045Z,994.76
2022-09-06T05:54:01.027Z,994.78
2022-09-06T05:55:01.012Z,994.74
2022-09-06T05:56:01.080Z,994.75
2022-09-06T05:57:00.990Z,994.81
2022-09-06T05:58:00.970Z,994.78
2022-09-06T05:59:01.011Z,994.79
2022-09-06T06:00:00.945Z,994.83
2022-09-06T06:01:01.073Z,994.85
2022-09-06T06:02:03.368Z,994.90
2022-09-06T06:03:00.909Z,994.86
2022-09-06T06:04:00.895Z,994.87
2022-09-06T06:05:00.912Z,994.89
2022-09-06T06:06:00.865Z,994.91
2022-09-06T06:07:00.902Z,994.89
2022-09-06T06:08:00.880Z,994.91
2022-09-06T06:09:00.830Z,994.98
2022-09-06T06:10:00.816Z,994.95
2022-09-06T06:11:00.820Z,995.00
2022-09-06T06:12:00.788Z,994.97
2022-09-06T06:13:00.793Z,994.98
2022-09-06T06:14:00.761Z,994.96
2022-09-06T06:15:00.857Z,995.00
2022-09-06T06:16:00.762Z,995.00
2022-09-06T06:17:00.810Z,995.00
2022-09-06T06:18:00.713Z,995.03
2022-09-06T06:19:00.727Z,995.08
2022-09-06T06:20:00.687Z,995.12
2022-09-06T06:21:00.677Z,995.18
2022-09-06T06:22:00.659Z,995.19
2022-09-06T06:23:00.649Z,995.18
2022-09-06T06:24:00.638Z,995.17
2022-09-06T06:25:00.636Z,995.15
2022-09-06T06:26:00.614Z,995.18
2022-09-06T06:27:00.598Z,995.17
2022-09-06T06:28:00.594Z,995.17
2022-09-06T06:29:00.574Z,995.14
2022-09-06T06:30:00.561Z,995.14
2022-09-06T06:31:00.569Z,995.16
2022-09-06T06:32:00.632Z,995.15
2022-09-06T06:33:02.432Z,995.15
2022-09-06T06:34:08.222Z,995.15
2022-09-06T06:36:04.969Z,995.14
2022-09-06T06:37:04.943Z,995.20
2022-09-06T06:39:09.401Z,995.20
2022-09-06T06:40:09.437Z,995.19
2022-09-06T06:42:13.826Z,995.17
2022-09-06T06:43:13.798Z,995.16
2022-09-06T06:45:18.277Z,995.17
2022-09-06T06:46:18.295Z,995.16
2022-09-06T06:48:22.726Z,995.15
2022-09-06T06:49:22.688Z,995.16
2022-09-06T06:51:27.153Z,995.17
2022-09-06T06:52:27.120Z,995.16
2022-09-06T06:53:27.107Z,995.16
2022-09-06T06:54:27.095Z,995.17
2022-09-06T06:55:27.083Z,995.15
2022-09-06T06:56:27.077Z,995.16
2022-09-06T06:57:27.062Z,995.09
2022-09-06T06:58:27.174Z,995.12
2022-09-06T06:59:27.041Z,995.11
2022-09-06T07:00:28.371Z,995.14
2022-09-06T07:01:27.138Z,995.15
2022-09-06T07:02:27.062Z,995.17
2022-09-06T07:03:26.992Z,995.18
2022-09-06T07:04:26.986Z,995.18
2022-09-06T07:07:29.993Z,995.26
2022-09-06T07:08:27.049Z,995.26
2022-09-06T07:09:27.109Z,995.28
2022-09-06T07:10:34.469Z,995.30
2022-09-06T07:11:26.900Z,995.31
2022-09-06T07:12:26.890Z,995.28
2022-09-06T07:13:26.961Z,995.27
2022-09-06T07:14:26.872Z,995.26
2022-09-06T07:15:26.864Z,995.25
2022-09-06T07:16:26.880Z,995.23
2022-09-06T07:17:26.837Z,995.27
2022-09-06T07:18:26.827Z,995.25
2022-09-06T07:20:27.009Z,995.28
2022-09-06T07:21:42.187Z,995.28
2022-09-06T07:22:26.782Z,995.31
2022-09-06T07:24:26.762Z,995.39
2022-09-06T07:25:26.753Z,995.33
2022-09-06T07:26:26.744Z,995.34
2022-09-06T07:28:26.775Z,995.35
2022-09-06T07:29:26.713Z,995.39
2022-09-06T07:30:26.702Z,995.35
2022-09-06T07:32:26.682Z,995.34
2022-09-06T07:33:26.710Z,995.33
2022-09-06T07:34:26.664Z,995.32
2022-09-06T07:35:26.652Z,995.32
2022-09-06T07:36:26.643Z,995.34
2022-09-06T07:37:26.633Z,995.36
2022-09-06T07:38:26.624Z,995.34
2022-09-06T07:39:26.662Z,995.38
2022-09-06T07:40:26.609Z,995.36
2022-09-06T07:41:26.594Z,995.41
2022-09-06T07:42:26.588Z,995.48
2022-09-06T07:43:26.610Z,995.45
2022-09-06T07:44:26.567Z,995.47
2022-09-06T07:45:26.558Z,995.46
2022-09-06T07:46:26.560Z,995.50
2022-09-06T07:48:26.563Z,995.50
2022-09-06T07:49:26.527Z,995.53
2022-09-06T07:51:26.503Z,995.52
2022-09-06T07:53:31.193Z,995.48
2022-09-06T07:54:30.421Z,995.49
2022-09-06T07:55:26.469Z,995.50
2022-09-06T07:56:26.458Z,995.50
2022-09-06T07:57:26.451Z,995.48
2022-09-06T07:58:26.440Z,995.48
2022-09-06T07:59:26.431Z,995.47
2022-09-06T08:00:26.422Z,995.49
2022-09-06T08:01:26.442Z,995.45
2022-09-06T08:02:26.458Z,995.47
2022-09-06T08:03:26.437Z,995.49
2022-09-06T08:04:26.388Z,995.45
2022-09-06T08:06:26.371Z,995.46
2022-09-06T08:07:41.776Z,995.48
2022-09-06T08:09:26.344Z,995.41
2022-09-06T08:10:26.335Z,995.43
2022-09-06T08:11:26.330Z,995.37
2022-09-06T08:12:26.321Z,995.38
2022-09-06T08:13:26.334Z,995.36
2022-09-06T08:14:26.310Z,995.35
2022-09-06T08:15:26.297Z,995.35
2022-09-06T08:16:26.334Z,995.36
2022-09-06T08:17:26.284Z,995.41
2022-09-06T08:18:26.273Z,995.40
2022-09-06T08:19:26.263Z,995.36
2022-09-06T08:20:26.256Z,995.35
2022-09-06T08:21:26.249Z,995.39
2022-09-06T08:22:26.242Z,995.35
2022-09-06T08:23:26.319Z,995.35
2022-09-06T08:24:26.229Z,995.35
2022-09-06T08:25:26.221Z,995.34
2022-09-06T08:26:26.213Z,995.32
2022-09-06T08:27:26.208Z,995.33
2022-09-06T08:28:28.774Z,995.36
2022-09-06T08:29:26.194Z,995.35
2022-09-06T08:30:26.206Z,995.35
2022-09-06T08:31:26.219Z,995.35
2022-09-06T08:32:26.177Z,995.39
2022-09-06T08:33:26.195Z,995.43
2022-09-06T08:34:26.166Z,995.41
2022-09-06T08:35:26.154Z,995.42
2022-09-06T08:36:26.150Z,995.44
2022-09-06T08:37:26.142Z,995.39
2022-09-06T08:38:26.137Z,995.37
2022-09-06T08:39:26.180Z,995.39
2022-09-06T08:40:26.125Z,995.41
2022-09-06T08:41:26.132Z,995.37
2022-09-06T08:42:26.116Z,995.38
2022-09-06T08:43:26.142Z,995.40
2022-09-06T08:45:26.100Z,995.37
2022-09-06T08:46:26.140Z,995.34
2022-09-06T08:47:26.083Z,995.33
2022-09-06T08:48:26.167Z,995.32
2022-09-06T08:49:26.073Z,995.32
2022-09-06T08:50:26.069Z,995.31
2022-09-06T08:51:26.064Z,995.27
2022-09-06T08:52:26.059Z,995.28
2022-09-06T08:53:26.054Z,995.28
2022-09-06T08:54:26.050Z,995.28
2022-09-06T08:55:26.044Z,995.30
2022-09-06T08:56:26.041Z,995.31
2022-09-06T08:57:26.031Z,995.31
2022-09-06T08:58:26.079Z,995.31
2022-09-06T08:59:26.022Z,995.33
2022-09-06T09:00:26.103Z,995.35
2022-09-06T09:01:26.013Z,995.30
2022-09-06T09:02:26.066Z,995.35
2022-09-06T09:03:26.014Z,995.27
2022-09-06T09:04:26.003Z,995.28
2022-09-06T09:05:26.011Z,995.30
2022-09-06T09:06:26.010Z,995.29
2022-09-06T09:07:25.989Z,995.30
2022-09-06T09:08:25.989Z,995.26
2022-09-06T09:09:25.978Z,995.26
2022-09-06T09:10:25.972Z,995.24
2022-09-06T09:11:25.972Z,995.24
2022-09-06T09:12:25.962Z,995.20
2022-09-06T09:13:25.987Z,995.22
2022-09-06T09:14:25.959Z,995.19
2022-09-06T09:15:25.948Z,995.23
2022-09-06T09:16:26.019Z,995.23
2022-09-06T09:17:25.944Z,995.22
2022-09-06T09:18:25.981Z,995.21
2022-09-06T09:19:25.937Z,995.18
2022-09-06T09:20:25.931Z,995.20
2022-09-06T09:21:30.424Z,995.27
2022-09-06T09:22:25.921Z,995.16
2022-09-06T09:23:25.921Z,995.14
2022-09-06T09:24:25.916Z,995.12
2022-09-06T09:25:25.909Z,995.13
2022-09-06T09:26:25.911Z,995.14
2022-09-06T09:27:25.902Z,995.12
2022-09-06T09:28:25.914Z,995.07
2022-09-06T09:29:29.500Z,995.09
2022-09-06T09:31:25.933Z,995.06
2022-09-06T09:32:25.889Z,995.12
2022-09-06T09:33:25.940Z,995.04
2022-09-06T09:34:25.880Z,995.05
2022-09-06T09:35:25.878Z,995.06
2022-09-06T09:36:25.876Z,995.08
2022-09-06T09:38:25.922Z,995.05
2022-09-06T09:39:25.890Z,995.03
2022-09-06T09:40:25.869Z,995.04
2022-09-06T09:41:25.860Z,995.00
2022-09-06T09:42:25.859Z,994.98
2022-09-06T09:43:25.857Z,994.97
2022-09-06T09:44:25.854Z,994.99
2022-09-06T09:45:25.850Z,994.93
2022-09-06T09:46:25.892Z,994.97
2022-09-06T09:47:25.846Z,994.91
2022-09-06T09:48:25.913Z,994.93
2022-09-06T09:49:25.839Z,994.91
2022-09-06T09:50:25.851Z,994.91
2022-09-06T09:51:27.654Z,994.94
2022-09-06T09:52:25.834Z,994.95
2022-09-06T09:53:25.832Z,994.93
2022-09-06T09:54:25.832Z,994.96
2022-09-06T09:55:25.827Z,994.96
2022-09-06T09:56:25.823Z,994.93
2022-09-06T09:57:25.837Z,994.95
2022-09-06T09:58:25.889Z,994.92
2022-09-06T09:59:25.819Z,994.98
2022-09-06T10:00:25.871Z,994.92
2022-09-06T10:01:25.812Z,994.90
2022-09-06T10:02:25.811Z,994.86
2022-09-06T10:03:26.074Z,994.82
2022-09-06T10:05:25.814Z,994.86
2022-09-06T10:07:25.796Z,994.88
2022-09-06T10:08:25.794Z,994.87
2022-09-06T10:09:25.794Z,994.84
2022-09-06T10:10:25.791Z,994.81
2022-09-06T10:11:25.787Z,994.80
2022-09-06T10:12:25.786Z,994.75
2022-09-06T10:13:25.785Z,994.73
2022-09-06T10:14:25.784Z,994.75
2022-09-06T10:15:25.780Z,994.72
2022-09-06T10:16:25.825Z,994.76
2022-09-06T10:17:25.783Z,994.74
2022-09-06T10:18:25.798Z,994.77
2022-09-06T10:19:25.769Z,994.74
2022-09-06T10:20:25.774Z,994.73
2022-09-06T10:21:25.769Z,994.75
2022-09-06T10:22:25.768Z,994.72
2022-09-06T10:25:25.763Z,994.68
2022-09-06T10:26:25.768Z,994.69
2022-09-06T10:27:25.758Z,994.67
2022-09-06T10:28:25.797Z,994.67
2022-09-06T10:29:25.759Z,994.73
2022-09-06T10:30:25.758Z,994.66
2022-09-06T10:31:25.773Z,994.69
2022-09-06T10:32:30.381Z,994.65
2022-09-06T10:33:25.749Z,994.67
2022-09-06T10:34:25.749Z,994.67
2022-09-06T10:35:25.749Z,994.67
2022-09-06T10:36:25.743Z,994.69
2022-09-06T10:37:25.745Z,994.63
2022-09-06T10:38:25.801Z,994.61
2022-09-06T10:39:25.764Z,994.57
2022-09-06T10:40:25.738Z,994.56
2022-09-06T10:41:25.735Z,994.56
2022-09-06T10:42:25.735Z,994.56
2022-09-06T10:43:25.733Z,994.60
2022-09-06T10:44:25.733Z,994.54
2022-09-06T10:45:25.733Z,994.59
2022-09-06T10:46:25.804Z,994.55
2022-09-06T10:47:25.727Z,994.59
2022-09-06T10:48:25.819Z,994.56
2022-09-06T10:49:25.726Z,994.58
2022-09-06T10:50:25.727Z,994.52
2022-09-06T10:51:25.723Z,994.51
2022-09-06T10:52:25.724Z,994.53
2022-09-06T10:53:25.725Z,994.50
2022-09-06T10:54:25.726Z,994.52
2022-09-06T10:55:25.728Z,994.47
2022-09-06T10:56:25.721Z,994.47
2022-09-06T10:58:25.903Z,994.44
2022-09-06T10:59:41.151Z,994.47
2022-09-06T11:00:25.722Z,994.46
2022-09-06T11:01:25.756Z,994.43
2022-09-06T11:02:25.866Z,994.43
2022-09-06T11:04:25.825Z,994.43
2022-09-06T11:05:41.081Z,994.42
2022-09-06T11:06:28.211Z,994.38
2022-09-06T11:07:25.832Z,994.42
2022-09-06T11:09:25.714Z,994.39
2022-09-06T11:10:25.721Z,994.44
2022-09-06T11:11:25.717Z,994.39
2022-09-06T11:12:25.795Z,994.37
2022-09-06T11:13:25.715Z,994.36
2022-09-06T11:14:25.718Z,994.37
2022-09-06T11:15:25.729Z,994.35
2022-09-06T11:16:25.764Z,994.34
2022-09-06T11:17:25.825Z,994.35
2022-09-06T11:18:25.764Z,994.40
2022-09-06T11:19:25.713Z,994.35
2022-09-06T11:20:31.267Z,994.38
2022-09-06T11:21:25.713Z,994.37
2022-09-06T11:22:25.720Z,994.33
2022-09-06T11:23:25.763Z,994.31
2022-09-06T11:24:25.715Z,994.25
2022-09-06T11:25:25.735Z,994.33
2022-09-06T11:26:25.721Z,994.34
2022-09-06T11:27:25.712Z,994.24
2022-09-06T11:28:25.718Z,994.24
2022-09-06T11:29:25.718Z,994.23
2022-09-06T11:30:25.724Z,994.26
2022-09-06T11:32:25.719Z,994.24
2022-09-06T11:33:25.888Z,994.21
2022-09-06T11:34:25.720Z,994.17
2022-09-06T11:35:25.727Z,994.24
2022-09-06T11:36:25.722Z,994.18
2022-09-06T11:37:25.722Z,994.19
2022-09-06T11:38:25.724Z,994.18
2022-09-06T11:41:25.725Z,994.20
2022-09-06T11:42:25.729Z,994.21
2022-09-06T11:43:25.768Z,994.23
2022-09-06T11:44:25.728Z,994.21
2022-09-06T11:45:25.734Z,994.15
2022-09-06T11:46:25.749Z,994.13
2022-09-06T11:47:25.730Z,994.11
2022-09-06T11:48:25.733Z,994.18
2022-09-06T11:49:25.730Z,994.08
2022-09-06T11:50:25.741Z,994.07
2022-09-06T11:51:25.731Z,994.05
2022-09-06T11:52:25.737Z,994.09
2022-09-06T11:53:25.808Z,994.12
2022-09-06T11:54:25.740Z,994.09
2022-09-06T11:55:25.740Z,994.12
2022-09-06T11:56:25.736Z,994.09
2022-09-06T11:57:25.737Z,994.08
2022-09-06T11:58:25.738Z,994.09
2022-09-06T11:59:25.737Z,994.12
2022-09-06T12:00:25.740Z,994.06
2022-09-06T12:01:25.738Z,994.09
2022-09-06T12:02:25.846Z,994.08
2022-09-06T12:04:25.738Z,994.11
2022-09-06T12:05:25.743Z,994.08
2022-09-06T12:06:25.744Z,994.06
2022-09-06T12:07:25.743Z,994.03
2022-09-06T12:08:25.838Z,994.04
2022-09-06T12:09:25.745Z,994.04
2022-09-06T12:10:25.746Z,994.07
2022-09-06T12:11:30.089Z,994.05
2022-09-06T12:12:25.751Z,994.02
2022-09-06T12:13:25.746Z,994.01
2022-09-06T12:14:25.752Z,994.04
2022-09-06T12:15:25.747Z,994.01
2022-09-06T12:16:25.784Z,994.01
2022-09-06T12:17:25.753Z,994.00
2022-09-06T12:18:25.858Z,993.97
2022-09-06T12:19:25.752Z,993.98
2022-09-06T12:20:25.757Z,993.99
2022-09-06T12:21:25.755Z,994.00
2022-09-06T12:22:25.756Z,993.98
2022-09-06T12:23:25.759Z,993.95
2022-09-06T12:24:25.756Z,993.93
2022-09-06T12:25:25.758Z,993.94
2022-09-06T12:26:25.762Z,993.91
2022-09-06T12:27:25.761Z,993.94
2022-09-06T12:28:25.813Z,993.88
2022-09-06T12:29:25.771Z,993.89
2022-09-06T12:30:25.761Z,993.88
2022-09-06T12:31:25.795Z,993.90
2022-09-06T12:32:25.761Z,993.85
2022-09-06T12:33:25.767Z,993.87
2022-09-06T12:34:25.765Z,993.85
2022-09-06T12:37:31.308Z,993.89
2022-09-06T12:38:31.289Z,993.83
2022-09-06T12:40:35.778Z,993.84
2022-09-06T12:41:37.455Z,993.81
2022-09-06T12:43:40.247Z,993.83
2022-09-06T12:44:40.242Z,993.75
2022-09-06T12:46:33.739Z,993.76
2022-09-06T12:47:33.659Z,993.72
2022-09-06T12:49:38.141Z,993.69
2022-09-06T12:50:38.151Z,993.72
2022-09-06T12:52:42.649Z,993.67
2022-09-06T12:53:42.635Z,993.70
2022-09-06T12:55:47.134Z,993.63
2022-09-06T12:56:47.118Z,993.67
2022-09-06T12:58:51.625Z,993.67
2022-09-06T12:59:51.641Z,993.59
2022-09-06T13:01:57.244Z,993.61
2022-09-06T13:02:57.256Z,993.60
2022-09-06T13:05:02.427Z,993.60
2022-09-06T13:06:02.421Z,993.56
2022-09-06T13:08:06.928Z,993.55
2022-09-06T13:09:06.907Z,993.51
2022-09-06T13:11:11.390Z,993.50
2022-09-06T13:12:11.375Z,993.50
2022-09-06T13:14:15.848Z,993.47
2022-09-06T13:15:15.846Z,993.42
2022-09-06T13:17:20.351Z,993.42
2022-09-06T13:18:20.342Z,993.50
2022-09-06T13:20:24.838Z,993.44
2022-09-06T13:21:24.818Z,993.49
2022-09-06T13:23:29.318Z,993.42
2022-09-06T13:24:29.340Z,993.41
2022-09-06T13:26:22.711Z,993.35
2022-09-06T13:27:22.691Z,993.32
2022-09-06T13:29:27.676Z,993.29
2022-09-06T13:30:27.169Z,993.36
2022-09-06T13:32:31.683Z,993.28
2022-09-06T13:33:31.655Z,993.32
2022-09-06T13:35:36.151Z,993.27
2022-09-06T13:36:36.171Z,993.31
2022-09-06T13:38:41.462Z,993.31
2022-09-06T13:39:41.501Z,993.29
2022-09-06T13:41:45.950Z,993.26
2022-09-06T13:42:45.930Z,993.31
2022-09-06T13:44:50.420Z,993.31
2022-09-06T13:45:50.433Z,993.29
2022-09-06T13:48:07.903Z,993.29
2022-09-06T13:48:54.899Z,993.26
2022-09-06T13:51:00.430Z,993.27
2022-09-06T13:52:00.396Z,993.23
2022-09-06T13:54:04.886Z,993.21
2022-09-06T13:55:04.880Z,993.19
2022-09-06T13:57:09.389Z,993.23
2022-09-06T13:58:09.366Z,993.19
2022-09-06T13:59:09.366Z,993.20
2022-09-06T14:00:09.370Z,993.19
2022-09-06T14:01:09.435Z,993.18
2022-09-06T14:02:09.426Z,993.14
2022-09-06T14:03:09.371Z,993.17
2022-09-06T14:04:09.372Z,993.15
2022-09-06T14:05:09.372Z,993.15
2022-09-06T14:06:09.377Z,993.14
2022-09-06T14:07:09.378Z,993.16
2022-09-06T14:08:09.385Z,993.10
2022-09-06T14:09:09.915Z,993.14
2022-09-06T14:10:09.382Z,993.12
2022-09-06T14:11:09.380Z,993.09
2022-09-06T14:12:09.383Z,993.13
2022-09-06T14:13:09.399Z,993.14
2022-09-06T14:14:09.402Z,993.10
2022-09-06T14:15:09.385Z,993.12
2022-09-06T14:16:09.474Z,993.13
2022-09-06T14:17:09.390Z,993.13
2022-09-06T14:18:13.779Z,993.08
2022-09-06T14:19:09.390Z,993.07
2022-09-06T14:20:09.390Z,993.09
2022-09-06T14:21:09.395Z,993.07
2022-09-06T14:22:09.397Z,993.04
2022-09-06T14:23:09.390Z,993.07
2022-09-06T14:24:09.390Z,993.04